KFLD/FLD METAR and TAF weather

Enter ICAO airport designator
Station Type Date Time Source
KFLD METAR 2022/12/04 05:53 UTC NOAA

KFLD 040553Z AUTO 21011KT 10SM CLR M07/M13 A3027 RMK AO2 SLP265 T10721128 11072 21089 400671089 58021


Station Type Date Time Source
KFLD Decoded METAR 2022/12/04 05:53 UTC NOAA

FOND DU LAC COUNTY AIRPORT, WI, United States (KFLD) 43-46N 88-29W 240M
Dec 04, 2022 - 12:53 AM EST / 2022.12.04 0553 UTC
Wind: from the SSW (210 degrees) at 13 MPH (11 KT):0
Visibility: 10 mile(s):0
Sky conditions: clear
Temperature: 19.0 F (-7.2 C)
Windchill: 6 F (-14 C):1
Dew Point: 9.0 F (-12.8 C)
Relative Humidity: 64%
Pressure (altimeter): 30.27 in. Hg (1025 hPa)
Pressure tendency: 0.06 inches (2.1 hPa) lower than three hours ago
ob: KFLD 040553Z AUTO 21011KT 10SM CLR M07/M13 A3027 RMK AO2 SLP265 T10721128 11072 21089 400671089 58021
cycle: 6

Station Type Date Time Source
KFLD TAF UTC NOAA

Error!

Example: see airport list